sensor_id;sensor_type;location;lat;lon;timestamp;pressure;altitude;pressure_sealevel;temperature;humidity
13968;BME280;39536;52.198;9.920;2023-05-23T00:01:18;100433.41;;;17.11;100.00
13968;BME280;39536;52.198;9.920;2023-05-23T00:03:45;100440.06;;;17.17;100.00
13968;BME280;39536;52.198;9.920;2023-05-23T00:06:13;100436.75;;;17.13;100.00
13968;BME280;39536;52.198;9.920;2023-05-23T00:08:40;100432.47;;;16.98;100.00
13968;BME280;39536;52.198;9.920;2023-05-23T00:11:08;100444.66;;;17.13;100.00
13968;BME280;39536;52.198;9.920;2023-05-23T00:13:34;100432.47;;;16.98;100.00
13968;BME280;39536;52.198;9.920;2023-05-23T00:16:01;100439.56;;;16.81;100.00
13968;BME280;39536;52.198;9.920;2023-05-23T00:18:27;100444.00;;;16.81;100.00
13968;BME280;39536;52.198;9.920;2023-05-23T00:20:54;100440.94;;;16.73;100.00
13968;BME280;39536;52.198;9.920;2023-05-23T00:23:23;100439.25;;;16.57;100.00
13968;BME280;39536;52.198;9.920;2023-05-23T00:25:50;100443.03;;;16.37;100.00
13968;BME280;39536;52.198;9.920;2023-05-23T00:28:18;100446.00;;;16.31;100.00
13968;BME280;39536;52.198;9.920;2023-05-23T00:30:45;100446.00;;;16.31;100.00
13968;BME280;39536;52.198;9.920;2023-05-23T00:33:13;100449.47;;;16.32;100.00
13968;BME280;39536;52.198;9.920;2023-05-23T00:35:40;100443.03;;;16.37;100.00
13968;BME280;39536;52.198;9.920;2023-05-23T00:38:07;100448.50;;;16.49;100.00
13968;BME280;39536;52.198;9.920;2023-05-23T00:40:34;100450.06;;;16.67;100.00
13968;BME280;39536;52.198;9.920;2023-05-23T00:43:00;100450.78;;;16.69;100.00
13968;BME280;39536;52.198;9.920;2023-05-23T00:45:28;100445.16;;;16.61;100.00
13968;BME280;39536;52.198;9.920;2023-05-23T00:47:55;100450.59;;;16.58;100.00
13968;BME280;39536;52.198;9.920;2023-05-23T00:50:23;100448.16;;;16.55;100.00
13968;BME280;39536;52.198;9.920;2023-05-23T00:52:54;100441.72;;;16.45;100.00
13968;BME280;39536;52.198;9.920;2023-05-23T00:55:22;100447.75;;;16.47;100.00
13968;BME280;39536;52.198;9.920;2023-05-23T00:57:49;100450.00;;;16.53;100.00
13968;BME280;39536;52.198;9.920;2023-05-23T01:00:16;100453.59;;;16.66;100.00
13968;BME280;39536;52.198;9.920;2023-05-23T01:02:46;100454.72;;;16.62;100.00
13968;BME280;39536;52.198;9.920;2023-05-23T01:05:16;100452.59;;;16.69;100.00
13968;BME280;39536;52.198;9.920;2023-05-23T01:07:43;100455.31;;;16.67;100.00
13968;BME280;39536;52.198;9.920;2023-05-23T01:10:12;100448.50;;;16.49;100.00
13968;BME280;39536;52.198;9.920;2023-05-23T01:12:45;100453.72;;;16.34;100.00
13968;BME280;39536;52.198;9.920;2023-05-23T01:15:17;100444.53;;;16.42;100.00
13968;BME280;39536;52.198;9.920;2023-05-23T01:17:51;100453.28;;;16.42;100.00
13968;BME280;39536;52.198;9.920;2023-05-23T01:20:22;100450.50;;;16.59;100.00
13968;BME280;39536;52.198;9.920;2023-05-23T01:23:07;100445.06;;;16.62;100.00
13968;BME280;39536;52.198;9.920;2023-05-23T01:25:56;100452.09;;;16.62;100.00
13968;BME280;39536;52.198;9.920;2023-05-23T01:28:32;100447.56;;;16.50;100.00
13968;BME280;39536;52.198;9.920;2023-05-23T01:31:03;100441.69;;;16.30;100.00
13968;BME280;39536;52.198;9.920;2023-05-23T01:33:31;100453.25;;;16.12;100.00
13968;BME280;39536;52.198;9.920;2023-05-23T01:36:00;100456.41;;;16.03;100.00
13968;BME280;39536;52.198;9.920;2023-05-23T01:38:27;100451.59;;;15.95;100.00
13968;BME280;39536;52.198;9.920;2023-05-23T01:40:54;100469.88;;;15.65;100.00
13968;BME280;39536;52.198;9.920;2023-05-23T01:43:21;100475.28;;;15.62;100.00
13968;BME280;39536;52.198;9.920;2023-05-23T01:45:50;100475.53;;;15.57;100.00
13968;BME280;39536;52.198;9.920;2023-05-23T01:48:20;100467.28;;;15.81;100.00
13968;BME280;39536;52.198;9.920;2023-05-23T01:50:46;100489.06;;;15.67;100.00
13968;BME280;39536;52.198;9.920;2023-05-23T01:53:15;100473.38;;;15.48;100.00
13968;BME280;39536;52.198;9.920;2023-05-23T01:55:49;100476.00;;;15.32;100.00
13968;BME280;39536;52.198;9.920;2023-05-23T01:58:16;100489.91;;;15.34;100.00
13968;BME280;39536;52.198;9.920;2023-05-23T02:00:43;100480.13;;;15.20;100.00
13968;BME280;39536;52.198;9.920;2023-05-23T02:03:11;100466.91;;;15.22;100.00
13968;BME280;39536;52.198;9.920;2023-05-23T02:05:37;100474.19;;;15.17;100.00
13968;BME280;39536;52.198;9.920;2023-05-23T02:08:04;100480.47;;;15.14;100.00
13968;BME280;39536;52.198;9.920;2023-05-23T02:10:31;100481.63;;;15.09;100.00
13968;BME280;39536;52.198;9.920;2023-05-23T02:12:57;100492.81;;;15.12;100.00
13968;BME280;39536;52.198;9.920;2023-05-23T02:15:24;100488.00;;;15.20;100.00
13968;BME280;39536;52.198;9.920;2023-05-23T02:17:50;100489.00;;;15.18;100.00
13968;BME280;39536;52.198;9.920;2023-05-23T02:20:18;100490.59;;;15.05;100.00
13968;BME280;39536;52.198;9.920;2023-05-23T02:22:45;100486.03;;;14.91;100.00
13968;BME280;39536;52.198;9.920;2023-05-23T02:25:12;100489.06;;;14.83;100.00
13968;BME280;39536;52.198;9.920;2023-05-23T02:27:39;100499.00;;;14.76;100.00
13968;BME280;39536;52.198;9.920;2023-05-23T02:30:07;100491.38;;;14.72;100.00
13968;BME280;39536;52.198;9.920;2023-05-23T02:32:34;100492.22;;;14.72;100.00
13968;BME280;39536;52.198;9.920;2023-05-23T02:35:02;100505.28;;;14.74;100.00
13968;BME280;39536;52.198;9.920;2023-05-23T02:37:31;100505.03;;;14.78;100.00
13968;BME280;39536;52.198;9.920;2023-05-23T02:39:57;100506.56;;;14.83;100.00
13968;BME280;39536;52.198;9.920;2023-05-23T02:42:24;100508.03;;;14.88;100.00
13968;BME280;39536;52.198;9.920;2023-05-23T02:44:50;100508.03;;;14.71;100.00
13968;BME280;39536;52.198;9.920;2023-05-23T02:47:17;100518.97;;;14.79;100.00
13968;BME280;39536;52.198;9.920;2023-05-23T02:49:44;100506.72;;;14.79;100.00
13968;BME280;39536;52.198;9.920;2023-05-23T02:52:10;100519.75;;;14.81;100.00
13968;BME280;39536;52.198;9.920;2023-05-23T02:54:38;100520.38;;;14.69;100.00
13968;BME280;39536;52.198;9.920;2023-05-23T02:57:05;100523.84;;;14.69;100.00
13968;BME280;39536;52.198;9.920;2023-05-23T02:59:31;100516.28;;;14.81;100.00
13968;BME280;39536;52.198;9.920;2023-05-23T03:01:58;100512.34;;;14.72;100.00
13968;BME280;39536;52.198;9.920;2023-05-23T03:04:25;100518.38;;;14.74;100.00
13968;BME280;39536;52.198;9.920;2023-05-23T03:06:51;100512.34;;;14.72;100.00
13968;BME280;39536;52.198;9.920;2023-05-23T03:09:18;100511.03;;;14.63;100.00
13968;BME280;39536;52.198;9.920;2023-05-23T03:11:47;100520.81;;;14.60;100.00
13968;BME280;39536;52.198;9.920;2023-05-23T03:14:13;100516.97;;;14.67;100.00
13968;BME280;39536;52.198;9.920;2023-05-23T03:16:40;100514.44;;;14.65;100.00
13968;BME280;39536;52.198;9.920;2023-05-23T03:19:07;100511.34;;;14.57;100.00
13968;BME280;39536;52.198;9.920;2023-05-23T03:21:33;100509.97;;;14.67;100.00
13968;BME280;39536;52.198;9.920;2023-05-23T03:24:00;100518.22;;;14.77;100.00
13968;BME280;39536;52.198;9.920;2023-05-23T03:26:27;100507.09;;;14.72;100.00
13968;BME280;39536;52.198;9.920;2023-05-23T03:28:55;100514.75;;;14.59;100.00
13968;BME280;39536;52.198;9.920;2023-05-23T03:31:21;100512.13;;;14.59;100.00
13968;BME280;39536;52.198;9.920;2023-05-23T03:33:48;100516.38;;;14.62;100.00
13968;BME280;39536;52.198;9.920;2023-05-23T03:36:15;100516.22;;;14.65;100.00
13968;BME280;39536;52.198;9.920;2023-05-23T03:38:41;100520.38;;;14.69;100.00
13968;BME280;39536;52.198;9.920;2023-05-23T03:41:08;100510.94;;;14.82;100.00
13968;BME280;39536;52.198;9.920;2023-05-23T03:43:34;100514.81;;;14.92;100.00
13968;BME280;39536;52.198;9.920;2023-05-23T03:46:03;100513.72;;;14.79;100.00
13968;BME280;39536;52.198;9.920;2023-05-23T03:48:29;100509.56;;;14.75;100.00
13968;BME280;39536;52.198;9.920;2023-05-23T03:50:56;100510.03;;;14.66;100.00
13968;BME280;39536;52.198;9.920;2023-05-23T03:53:22;100516.06;;;14.68;100.00
13968;BME280;39536;52.198;9.920;2023-05-23T03:55:49;100512.34;;;14.72;100.00
13968;BME280;39536;52.198;9.920;2023-05-23T03:58:18;100514.97;;;14.89;100.00
13968;BME280;39536;52.198;9.920;2023-05-23T04:00:44;100522.38;;;14.64;100.00
13968;BME280;39536;52.198;9.920;2023-05-23T04:03:13;100519.75;;;14.64;100.00
13968;BME280;39536;52.198;9.920;2023-05-23T04:05:41;100518.59;;;14.69;100.00
13968;BME280;39536;52.198;9.920;2023-05-23T04:08:08;100518.97;;;14.79;100.00
13968;BME280;39536;52.198;9.920;2023-05-23T04:10:34;100522.28;;;14.83;100.00
13968;BME280;39536;52.198;9.920;2023-05-23T04:13:01;100519.88;;;14.61;100.00
13968;BME280;39536;52.198;9.920;2023-05-23T04:15:28;100524.44;;;14.57;100.00
13968;BME280;39536;52.198;9.920;2023-05-23T04:17:54;100526.00;;;14.42;100.00
13968;BME280;39536;52.198;9.920;2023-05-23T04:20:23;100535.22;;;14.51;100.00
13968;BME280;39536;52.198;9.920;2023-05-23T04:22:50;100534.44;;;14.49;100.00
13968;BME280;39536;52.198;9.920;2023-05-23T04:25:16;100525.69;;;14.48;100.00
13968;BME280;39536;52.198;9.920;2023-05-23T04:27:44;100522.19;;;14.49;100.00
13968;BME280;39536;52.198;9.920;2023-05-23T04:30:12;100533.69;;;14.28;100.00
13968;BME280;39536;52.198;9.920;2023-05-23T04:32:41;100521.84;;;14.38;100.00
13968;BME280;39536;52.198;9.920;2023-05-23T04:35:08;100525.16;;;14.24;100.00
13968;BME280;39536;52.198;9.920;2023-05-23T04:37:36;100526.47;;;14.33;100.00
13968;BME280;39536;52.198;9.920;2023-05-23T04:40:04;100524.31;;;14.41;100.00
13968;BME280;39536;52.198;9.920;2023-05-23T04:42:31;100518.84;;;14.65;100.00
13968;BME280;39536;52.198;9.920;2023-05-23T04:44:58;100525.63;;;14.86;100.00
13968;BME280;39536;52.198;9.920;2023-05-23T04:47:26;100519.75;;;14.98;100.00
13968;BME280;39536;52.198;9.920;2023-05-23T04:49:53;100519.81;;;15.14;100.00
13968;BME280;39536;52.198;9.920;2023-05-23T04:52:20;100524.66;;;15.22;100.00
13968;BME280;39536;52.198;9.920;2023-05-23T04:54:48;100519.56;;;15.19;100.00
13968;BME280;39536;52.198;9.920;2023-05-23T04:57:14;100519.19;;;14.92;100.00
13968;BME280;39536;52.198;9.920;2023-05-23T04:59:41;100528.78;;;14.93;100.00
13968;BME280;39536;52.198;9.920;2023-05-23T05:02:08;100520.22;;;14.89;100.00
13968;BME280;39536;52.198;9.920;2023-05-23T05:04:34;100526.47;;;14.87;100.00
13968;BME280;39536;52.198;9.920;2023-05-23T05:07:01;100518.81;;;14.82;100.00
13968;BME280;39536;52.198;9.920;2023-05-23T05:09:28;100523.00;;;14.86;100.00
13968;BME280;39536;52.198;9.920;2023-05-23T05:11:57;100524.44;;;14.92;100.00
13968;BME280;39536;52.198;9.920;2023-05-23T05:14:24;100522.69;;;14.75;100.00
13968;BME280;39536;52.198;9.920;2023-05-23T05:16:50;100523.16;;;14.66;100.00
13968;BME280;39536;52.198;9.920;2023-05-23T05:19:18;100527.69;;;14.62;100.00
13968;BME280;39536;52.198;9.920;2023-05-23T05:21:45;100533.16;;;14.58;100.00
13968;BME280;39536;52.198;9.920;2023-05-23T05:24:12;100535.03;;;14.55;100.00
13968;BME280;39536;52.198;9.920;2023-05-23T05:26:40;100522.81;;;14.54;100.00
13968;BME280;39536;52.198;9.920;2023-05-23T05:29:08;100534.03;;;14.39;100.00
13968;BME280;39536;52.198;9.920;2023-05-23T05:31:35;100526.78;;;14.27;100.00
13968;BME280;39536;52.198;9.920;2023-05-23T05:34:02;100532.31;;;14.21;100.00
13968;BME280;39536;52.198;9.920;2023-05-23T05:36:29;100535.88;;;14.37;100.00
13968;BME280;39536;52.198;9.920;2023-05-23T05:38:56;100528.88;;;14.38;100.00
13968;BME280;39536;52.198;9.920;2023-05-23T05:41:23;100531.88;;;14.47;100.00
13968;BME280;39536;52.198;9.920;2023-05-23T05:43:51;100526.63;;;14.47;100.00
13968;BME280;39536;52.198;9.920;2023-05-23T05:46:19;100534.59;;;14.46;100.00
13968;BME280;39536;52.198;9.920;2023-05-23T05:48:45;100534.09;;;14.38;100.00
13968;BME280;39536;52.198;9.920;2023-05-23T05:51:12;100535.78;;;14.39;100.00
13968;BME280;39536;52.198;9.920;2023-05-23T05:53:39;100538.50;;;14.37;100.00
13968;BME280;39536;52.198;9.920;2023-05-23T05:56:05;100537.94;;;14.30;100.00
13968;BME280;39536;52.198;9.920;2023-05-23T05:58:33;100537.28;;;14.44;100.00
13968;BME280;39536;52.198;9.920;2023-05-23T06:01:00;100542.09;;;14.53;100.00
13968;BME280;39536;52.198;9.920;2023-05-23T06:03:28;100537.38;;;14.43;100.00
13968;BME280;39536;52.198;9.920;2023-05-23T06:05:54;100537.13;;;14.47;100.00
13968;BME280;39536;52.198;9.920;2023-05-23T06:08:21;100538.66;;;14.34;100.00
13968;BME280;39536;52.198;9.920;2023-05-23T06:10:48;100547.47;;;14.50;100.00
13968;BME280;39536;52.198;9.920;2023-05-23T06:13:14;100537.22;;;14.46;100.00
13968;BME280;39536;52.198;9.920;2023-05-23T06:15:42;100539.19;;;14.41;100.00
13968;BME280;39536;52.198;9.920;2023-05-23T06:18:09;100538.34;;;14.40;100.00
13968;BME280;39536;52.198;9.920;2023-05-23T06:20:38;100539.88;;;14.27;100.00
13968;BME280;39536;52.198;9.920;2023-05-23T06:23:04;100539.44;;;14.36;100.00
13968;BME280;39536;52.198;9.920;2023-05-23T06:25:32;100537.69;;;14.18;100.00
13968;BME280;39536;52.198;9.920;2023-05-23T06:27:59;100540.78;;;14.26;100.00
13968;BME280;39536;52.198;9.920;2023-05-23T06:30:25;100544.69;;;14.17;100.00
13968;BME280;39536;52.198;9.920;2023-05-23T06:32:53;100541.31;;;14.15;100.00
13968;BME280;39536;52.198;9.920;2023-05-23T06:35:20;100543.53;;;14.23;100.00
13968;BME280;39536;52.198;9.920;2023-05-23T06:37:48;100539.09;;;14.25;100.00
13968;BME280;39536;52.198;9.920;2023-05-23T06:40:14;100544.25;;;14.07;100.00
13968;BME280;39536;52.198;9.920;2023-05-23T06:42:41;100560.25;;;14.01;100.00
13968;BME280;39536;52.198;9.920;2023-05-23T06:45:08;100548.38;;;13.94;100.00
13968;BME280;39536;52.198;9.920;2023-05-23T06:47:35;100549.09;;;13.98;100.00
13968;BME280;39536;52.198;9.920;2023-05-23T06:50:02;100551.13;;;14.10;100.00
13968;BME280;39536;52.198;9.920;2023-05-23T06:52:29;100550.28;;;14.09;100.00
13968;BME280;39536;52.198;9.920;2023-05-23T06:54:57;100553.81;;;14.27;100.00
13968;BME280;39536;52.198;9.920;2023-05-23T06:57:23;100554.53;;;14.31;100.00
13968;BME280;39536;52.198;9.920;2023-05-23T06:59:50;100559.22;;;14.24;100.00
13968;BME280;39536;52.198;9.920;2023-05-23T07:02:16;100560.06;;;14.25;100.00
13968;BME280;39536;52.198;9.920;2023-05-23T07:04:43;100549.34;;;14.10;100.00
13968;BME280;39536;52.198;9.920;2023-05-23T07:07:09;100575.66;;;14.09;100.00
13968;BME280;39536;52.198;9.920;2023-05-23T07:09:36;100565.44;;;14.22;100.00
13968;BME280;39536;52.198;9.920;2023-05-23T07:12:05;100567.41;;;14.17;100.00
13968;BME280;39536;52.198;9.920;2023-05-23T07:14:31;100605.84;;;13.97;100.00
13968;BME280;39536;52.198;9.920;2023-05-23T07:16:59;100573.03;;;13.90;100.00
13968;BME280;39536;52.198;9.920;2023-05-23T07:19:26;100561.34;;;13.78;100.00
13968;BME280;39536;52.198;9.920;2023-05-23T07:21:53;100577.09;;;13.77;100.00
13968;BME280;39536;52.198;9.920;2023-05-23T07:24:19;100566.41;;;13.62;100.00
13968;BME280;39536;52.198;9.920;2023-05-23T07:26:46;100560.94;;;13.48;100.00
13968;BME280;39536;52.198;9.920;2023-05-23T07:29:14;100545.38;;;13.45;100.00
13968;BME280;39536;52.198;9.920;2023-05-23T07:31:40;100590.78;;;13.44;100.00
13968;BME280;39536;52.198;9.920;2023-05-23T07:34:07;100589.22;;;13.40;100.00
13968;BME280;39536;52.198;9.920;2023-05-23T07:36:33;100584.69;;;13.44;100.00
13968;BME280;39536;52.198;9.920;2023-05-23T07:39:02;100590.50;;;13.50;100.00
13968;BME280;39536;52.198;9.920;2023-05-23T07:41:29;100584.69;;;13.44;100.00
13968;BME280;39536;52.198;9.920;2023-05-23T07:43:55;100603.47;;;13.33;100.00
13968;BME280;39536;52.198;9.920;2023-05-23T07:46:23;100602.69;;;13.31;100.00
13968;BME280;39536;52.198;9.920;2023-05-23T07:48:50;100596.66;;;13.29;100.00
13968;BME280;39536;52.198;9.920;2023-05-23T07:51:16;100589.97;;;13.42;100.00
13968;BME280;39536;52.198;9.920;2023-05-23T07:53:45;100601.25;;;13.44;100.00
13968;BME280;39536;52.198;9.920;2023-05-23T07:56:12;100603.72;;;13.47;100.00
13968;BME280;39536;52.198;9.920;2023-05-23T07:58:38;100606.03;;;13.34;100.00
13968;BME280;39536;52.198;9.920;2023-05-23T08:01:05;100616.09;;;13.44;100.00
13968;BME280;39536;52.198;9.920;2023-05-23T08:03:33;100606.47;;;13.44;100.00
13968;BME280;39536;52.198;9.920;2023-05-23T08:06:00;100642.56;;;13.36;100.00
13968;BME280;39536;52.198;9.920;2023-05-23T08:08:26;100619.69;;;13.41;100.00
13968;BME280;39536;52.198;9.920;2023-05-23T08:10:53;100604.72;;;13.45;100.00
13968;BME280;39536;52.198;9.920;2023-05-23T08:13:19;100613.34;;;13.47;100.00
13968;BME280;39536;52.198;9.920;2023-05-23T08:15:46;100620.03;;;13.33;100.00
13968;BME280;39536;52.198;9.920;2023-05-23T08:18:13;100627.50;;;13.21;100.00
13968;BME280;39536;52.198;9.920;2023-05-23T08:20:42;100633.53;;;13.23;100.00
13968;BME280;39536;52.198;9.920;2023-05-23T08:23:08;100629.59;;;13.12;100.00
13968;BME280;39536;52.198;9.920;2023-05-23T08:25:36;100643.28;;;13.19;100.00
13968;BME280;39536;52.198;9.920;2023-05-23T08:28:02;100655.03;;;13.09;100.00
13968;BME280;39536;52.198;9.920;2023-05-23T08:30:29;100640.38;;;13.05;100.00
13968;BME280;39536;52.198;9.920;2023-05-23T08:32:57;100646.38;;;13.07;100.00
13968;BME280;39536;52.198;9.920;2023-05-23T08:35:25;100661.25;;;13.06;100.00
13968;BME280;39536;52.198;9.920;2023-05-23T08:37:54;100670.25;;;12.99;100.00
13968;BME280;39536;52.198;9.920;2023-05-23T08:40:23;100650.06;;;13.03;100.00
13968;BME280;39536;52.198;9.920;2023-05-23T08:42:53;100659.66;;;13.02;100.00
13968;BME280;39536;52.198;9.920;2023-05-23T08:45:20;100653.25;;;13.09;100.00
13968;BME280;39536;52.198;9.920;2023-05-23T08:47:47;100665.78;;;13.01;100.00
13968;BME280;39536;52.198;9.920;2023-05-23T08:50:17;100679.59;;;13.05;100.00
13968;BME280;39536;52.198;9.920;2023-05-23T08:52:48;100681.56;;;13.00;100.00
13968;BME280;39536;52.198;9.920;2023-05-23T08:55:17;100675.84;;;12.90;100.00
13968;BME280;39536;52.198;9.920;2023-05-23T08:57:44;100696.56;;;12.73;100.00
13968;BME280;39536;52.198;9.920;2023-05-23T09:00:13;100701.28;;;12.63;100.00
13968;BME280;39536;52.198;9.920;2023-05-23T09:02:42;100712.56;;;12.65;100.00
13968;BME280;39536;52.198;9.920;2023-05-23T09:05:09;100691.81;;;12.60;100.00
13968;BME280;39536;52.198;9.920;2023-05-23T09:07:36;100703.22;;;12.58;100.00
13968;BME280;39536;52.198;9.920;2023-05-23T09:10:05;100711.56;;;12.67;100.00
13968;BME280;39536;52.198;9.920;2023-05-23T09:12:34;100716.72;;;12.47;100.00
13968;BME280;39536;52.198;9.920;2023-05-23T09:15:02;100707.94;;;12.48;100.00
13968;BME280;39536;52.198;9.920;2023-05-23T09:17:30;100699.19;;;12.49;100.00
13968;BME280;39536;52.198;9.920;2023-05-23T09:19:57;100700.56;;;12.36;100.00
13968;BME280;39536;52.198;9.920;2023-05-23T09:22:24;100721.16;;;12.21;100.00
13968;BME280;39536;52.198;9.920;2023-05-23T09:24:52;100721.69;;;12.30;100.00
13968;BME280;39536;52.198;9.920;2023-05-23T09:27:18;100720.84;;;12.29;100.00
13968;BME280;39536;52.198;9.920;2023-05-23T09:29:47;100744.34;;;12.29;100.00
13968;BME280;39536;52.198;9.920;2023-05-23T09:32:15;100726.03;;;12.31;100.00
13968;BME280;39536;52.198;9.920;2023-05-23T09:34:54;100761.72;;;12.30;100.00
13968;BME280;39536;52.198;9.920;2023-05-23T09:37:21;100749.88;;;12.21;100.00
13968;BME280;39536;52.198;9.920;2023-05-23T09:39:49;100739.66;;;12.15;100.00
13968;BME280;39536;52.198;9.920;2023-05-23T09:42:20;100760.84;;;12.06;100.00
13968;BME280;39536;52.198;9.920;2023-05-23T09:44:49;100761.81;;;12.04;100.00
13968;BME280;39536;52.198;9.920;2023-05-23T09:47:15;100754.69;;;12.09;100.00
13968;BME280;39536;52.198;9.920;2023-05-23T09:49:42;100777.78;;;11.94;100.00
13968;BME280;39536;52.198;9.920;2023-05-23T09:52:09;100755.34;;;11.89;100.00
13968;BME280;39536;52.198;9.920;2023-05-23T09:54:36;100770.56;;;11.76;100.00
13968;BME280;39536;52.198;9.920;2023-05-23T09:57:05;100759.78;;;11.87;100.00
13968;BME280;39536;52.198;9.920;2023-05-23T09:59:34;100740.84;;;11.80;100.00
13968;BME280;39536;52.198;9.920;2023-05-23T10:02:06;100761.72;;;11.80;100.00
13968;BME280;39536;52.198;9.920;2023-05-23T10:04:34;100765.53;;;11.70;100.00
13968;BME280;39536;52.198;9.920;2023-05-23T10:07:06;100744.84;;;11.65;100.00
13968;BME280;39536;52.198;9.920;2023-05-23T10:09:37;100795.41;;;11.61;100.00
13968;BME280;39536;52.198;9.920;2023-05-23T10:15:12;100819.72;;;11.62;100.00
13968;BME280;39536;52.198;9.920;2023-05-23T10:17:51;100804.84;;;11.65;100.00
13968;BME280;39536;52.198;9.920;2023-05-23T10:20:21;100775.13;;;11.69;100.00
13968;BME280;39536;52.198;9.920;2023-05-23T10:22:50;100823.25;;;11.61;100.00
13968;BME280;39536;52.198;9.920;2023-05-23T10:25:17;100816.25;;;11.63;100.00
13968;BME280;39536;52.198;9.920;2023-05-23T10:27:45;100806.94;;;11.80;100.00
13968;BME280;39536;52.198;9.920;2023-05-23T10:30:13;100822.81;;;11.74;100.00
13968;BME280;39536;52.198;9.920;2023-05-23T10:32:42;100837.38;;;11.82;100.00
13968;BME280;39536;52.198;9.920;2023-05-23T10:35:14;100826.94;;;11.82;100.00
13968;BME280;39536;52.198;9.920;2023-05-23T10:37:48;100828.81;;;11.76;100.00
13968;BME280;39536;52.198;9.920;2023-05-23T10:40:20;100835.44;;;11.88;100.00
13968;BME280;39536;52.198;9.920;2023-05-23T10:42:55;100844.34;;;11.81;100.00
13968;BME280;39536;52.198;9.920;2023-05-23T10:45:23;100831.91;;;11.89;100.00
13968;BME280;39536;52.198;9.920;2023-05-23T10:47:52;100822.00;;;11.99;100.00
13968;BME280;39536;52.198;9.920;2023-05-23T10:50:32;100828.25;;;11.68;100.00
13968;BME280;39536;52.198;9.920;2023-05-23T10:52:59;100827.25;;;11.71;100.00
13968;BME280;39536;52.198;9.920;2023-05-23T10:55:30;100835.38;;;11.62;100.00
13968;BME280;39536;52.198;9.920;2023-05-23T10:58:11;100847.28;;;11.70;100.00
13968;BME280;39536;52.198;9.920;2023-05-23T11:00:38;100810.84;;;11.67;100.00
13968;BME280;39536;52.198;9.920;2023-05-23T11:03:07;100856.84;;;11.71;100.00
13968;BME280;39536;52.198;9.920;2023-05-23T11:05:35;100819.63;;;11.65;100.00
13968;BME280;39536;52.198;9.920;2023-05-23T11:08:09;100850.84;;;11.68;100.00
13968;BME280;39536;52.198;9.920;2023-05-23T11:10:57;100856.13;;;11.66;100.00
13968;BME280;39536;52.198;9.920;2023-05-23T11:13:24;100855.75;;;11.77;100.00
13968;BME280;39536;52.198;9.920;2023-05-23T11:15:51;100881.09;;;11.75;100.00
13968;BME280;39536;52.198;9.920;2023-05-23T11:18:22;100878.50;;;11.73;100.00
13968;BME280;39536;52.198;9.920;2023-05-23T11:20:50;100860.13;;;11.76;100.00
13968;BME280;39536;52.198;9.920;2023-05-23T11:23:18;100859.75;;;11.62;100.00
13968;BME280;39536;52.198;9.920;2023-05-23T11:25:48;100917.53;;;11.78;100.00
13968;BME280;39536;52.198;9.920;2023-05-23T11:28:14;100885.78;;;11.64;100.00
13968;BME280;39536;52.198;9.920;2023-05-23T11:30:41;100899.44;;;11.72;100.00
13968;BME280;39536;52.198;9.920;2023-05-23T11:33:10;100910.44;;;11.82;100.00
13968;BME280;39536;52.198;9.920;2023-05-23T11:35:40;100896.31;;;11.61;100.00
13968;BME280;39536;52.198;9.920;2023-05-23T11:38:07;100907.66;;;11.60;100.00
13968;BME280;39536;52.198;9.920;2023-05-23T11:40:34;100890.34;;;11.57;100.00
13968;BME280;39536;52.198;9.920;2023-05-23T11:43:02;100907.94;;;11.50;100.00
13968;BME280;39536;52.198;9.920;2023-05-23T11:45:30;100879.53;;;11.68;100.00
13968;BME280;39536;52.198;9.920;2023-05-23T11:47:57;100897.34;;;11.83;100.00
13968;BME280;39536;52.198;9.920;2023-05-23T11:50:24;100890.44;;;11.80;100.00
13968;BME280;39536;52.198;9.920;2023-05-23T11:52:53;100900.72;;;11.87;100.00
13968;BME280;39536;52.198;9.920;2023-05-23T11:55:20;100902.28;;;11.92;100.00
13968;BME280;39536;52.198;9.920;2023-05-23T11:57:47;100919.50;;;11.99;100.00
13968;BME280;39536;52.198;9.920;2023-05-23T12:00:15;100909.81;;;11.73;100.00
13968;BME280;39536;52.198;9.920;2023-05-23T12:02:43;100911.84;;;11.93;100.00
13968;BME280;39536;52.198;9.920;2023-05-23T12:05:11;100920.03;;;12.09;100.00
13968;BME280;39536;52.198;9.920;2023-05-23T12:07:39;100924.84;;;12.21;100.00
13968;BME280;39536;52.198;9.920;2023-05-23T12:10:08;100921.66;;;12.38;100.00
13968;BME280;39536;52.198;9.920;2023-05-23T12:12:35;100930.13;;;12.20;100.00
13968;BME280;39536;52.198;9.920;2023-05-23T12:15:02;100948.34;;;11.95;100.00
13968;BME280;39536;52.198;9.920;2023-05-23T12:17:29;100945.41;;;11.76;100.00
13968;BME280;39536;52.198;9.920;2023-05-23T12:19:57;100931.94;;;11.62;100.00
13968;BME280;39536;52.198;9.920;2023-05-23T12:22:23;100945.25;;;11.52;100.00
13968;BME280;39536;52.198;9.920;2023-05-23T12:24:52;100929.66;;;11.51;100.00
13968;BME280;39536;52.198;9.920;2023-05-23T12:27:26;100938.91;;;11.61;100.00
13968;BME280;39536;52.198;9.920;2023-05-23T12:30:03;100951.56;;;11.75;100.00
13968;BME280;39536;52.198;9.920;2023-05-23T12:32:30;100955.84;;;12.06;100.00
13968;BME280;39536;52.198;9.920;2023-05-23T12:34:56;100948.00;;;12.32;100.00
13968;BME280;39536;52.198;9.920;2023-05-23T12:37:23;100922.81;;;12.56;100.00
13968;BME280;39536;52.198;9.920;2023-05-23T12:39:50;100945.38;;;12.59;100.00
13968;BME280;39536;52.198;9.920;2023-05-23T12:42:16;100931.38;;;12.85;100.00
13968;BME280;39536;52.198;9.920;2023-05-23T12:44:44;100925.16;;;13.12;100.00
13968;BME280;39536;52.198;9.920;2023-05-23T12:47:12;100942.50;;;13.15;100.00